createdAt,value
2023-03-25T00:01:44.908Z,18.20
2023-03-25T00:04:15.736Z,18.20
2023-03-25T00:06:46.737Z,18.20
2023-03-25T00:09:18.812Z,18.30
2023-03-25T00:11:49.177Z,18.50
2023-03-25T00:14:20.204Z,18.60
2023-03-25T00:16:55.096Z,18.60
2023-03-25T00:19:27.082Z,18.80
2023-03-25T00:21:57.892Z,18.90
2023-03-25T00:24:29.723Z,18.90
2023-03-25T00:26:59.970Z,18.90
2023-03-25T00:29:30.615Z,19.00
2023-03-25T00:32:01.357Z,19.00
2023-03-25T00:34:32.018Z,19.00
2023-03-25T00:37:03.348Z,19.20
2023-03-25T00:39:34.112Z,19.30
2023-03-25T00:42:04.784Z,19.40
2023-03-25T00:44:35.132Z,19.50
2023-03-25T00:47:05.495Z,19.50
2023-03-25T00:49:35.834Z,19.50
2023-03-25T00:52:06.221Z,19.40
2023-03-25T00:54:36.959Z,19.40
2023-03-25T00:57:07.765Z,19.30
2023-03-25T00:59:38.530Z,19.10
2023-03-25T01:02:09.481Z,19.00
2023-03-25T01:04:43.018Z,18.80
2023-03-25T01:07:18.042Z,18.80
2023-03-25T01:09:49.240Z,18.80
2023-03-25T01:12:20.792Z,18.70
2023-03-25T01:14:51.529Z,18.60
2023-03-25T01:17:22.671Z,18.60
2023-03-25T01:19:53.738Z,18.60
2023-03-25T01:22:24.046Z,18.70
2023-03-25T01:24:54.442Z,18.70
2023-03-25T01:27:26.696Z,18.60
2023-03-25T01:29:57.591Z,18.60
2023-03-25T01:32:28.526Z,18.60
2023-03-25T01:34:58.992Z,18.60
2023-03-25T01:37:29.416Z,18.50
2023-03-25T01:40:00.152Z,18.50
2023-03-25T01:42:30.378Z,18.50
2023-03-25T01:45:22.639Z,18.40
2023-03-25T01:48:01.404Z,18.30
2023-03-25T01:50:35.758Z,18.30
2023-03-25T01:53:09.510Z,18.20
2023-03-25T01:55:41.970Z,18.20
2023-03-25T01:58:15.626Z,18.20
2023-03-25T02:00:50.603Z,18.10
2023-03-25T02:03:25.645Z,18.10
2023-03-25T02:06:09.862Z,18.10
2023-03-25T02:08:43.713Z,18.10
2023-03-25T02:11:14.839Z,18.10
2023-03-25T02:13:45.367Z,18.10
2023-03-25T02:16:37.458Z,18.10
2023-03-25T02:19:24.221Z,18.10
2023-03-25T02:22:13.913Z,18.10
2023-03-25T02:25:08.423Z,18.00
2023-03-25T02:28:01.120Z,18.00
2023-03-25T02:30:53.596Z,17.90
2023-03-25T02:33:53.161Z,17.90
2023-03-25T02:37:04.455Z,17.80
2023-03-25T02:39:45.723Z,17.80
2023-03-25T02:42:16.528Z,17.80
2023-03-25T02:45:05.086Z,17.80
2023-03-25T02:47:44.118Z,17.80
2023-03-25T02:50:20.047Z,17.80
2023-03-25T02:52:54.737Z,17.80
2023-03-25T02:55:27.272Z,17.80
2023-03-25T02:57:59.007Z,17.70
2023-03-25T03:00:31.562Z,17.70
2023-03-25T03:03:04.338Z,17.70
2023-03-25T03:05:46.930Z,17.70
2023-03-25T03:08:32.714Z,17.60
2023-03-25T03:11:24.380Z,17.60
2023-03-25T03:14:32.573Z,17.60
2023-03-25T03:17:49.420Z,17.50
2023-03-25T03:20:34.266Z,17.60
2023-03-25T03:23:35.848Z,17.60
2023-03-25T03:26:22.082Z,17.60
2023-03-25T03:29:06.444Z,17.50
2023-03-25T03:32:06.654Z,17.60
2023-03-25T03:34:49.543Z,17.60
2023-03-25T03:37:32.541Z,17.60
2023-03-25T03:40:06.841Z,17.60
2023-03-25T03:43:10.698Z,17.70
2023-03-25T03:45:51.656Z,17.80
2023-03-25T03:48:43.491Z,17.90
2023-03-25T03:51:32.831Z,18.00
2023-03-25T03:54:30.416Z,18.10
2023-03-25T03:57:11.109Z,18.20
2023-03-25T03:59:56.756Z,18.30
2023-03-25T04:02:30.515Z,18.40
2023-03-25T04:05:02.977Z,18.30
2023-03-25T04:08:00.238Z,18.40
2023-03-25T04:10:37.021Z,18.30
2023-03-25T04:13:13.104Z,18.40
2023-03-25T04:15:45.031Z,18.40
2023-03-25T04:18:16.226Z,18.40
2023-03-25T04:20:53.746Z,18.50
2023-03-25T04:23:24.774Z,18.50
2023-03-25T04:25:55.681Z,18.50
2023-03-25T04:28:29.674Z,18.60
2023-03-25T04:31:02.720Z,18.50
2023-03-25T04:33:35.027Z,18.40
2023-03-25T04:36:06.053Z,18.40
2023-03-25T04:38:36.776Z,18.40
2023-03-25T04:41:09.156Z,18.30
2023-03-25T04:43:41.732Z,18.30
2023-03-25T04:46:18.341Z,18.30
2023-03-25T04:48:51.103Z,18.40
2023-03-25T04:51:22.196Z,18.20
2023-03-25T04:53:53.437Z,18.10
2023-03-25T04:56:25.505Z,18.00
2023-03-25T04:58:57.100Z,18.00
2023-03-25T05:01:33.041Z,18.00
2023-03-25T05:04:11.007Z,17.90
2023-03-25T05:06:44.841Z,17.90
2023-03-25T05:09:18.525Z,17.90
2023-03-25T05:11:50.631Z,17.90
2023-03-25T05:14:23.173Z,17.80
2023-03-25T05:16:54.204Z,17.80
2023-03-25T05:19:25.179Z,17.80
2023-03-25T05:21:58.444Z,17.90
2023-03-25T05:24:30.599Z,17.90
2023-03-25T05:27:05.554Z,17.90
2023-03-25T05:29:36.320Z,18.00
2023-03-25T05:32:07.065Z,18.00
2023-03-25T05:34:38.030Z,18.10
2023-03-25T05:37:09.164Z,18.00
2023-03-25T05:39:40.196Z,18.00
2023-03-25T05:42:29.840Z,17.90
2023-03-25T05:45:01.798Z,18.00
2023-03-25T05:47:34.832Z,18.00
2023-03-25T05:50:05.943Z,18.00
2023-03-25T05:52:36.683Z,18.00
2023-03-25T05:55:08.687Z,18.00
2023-03-25T05:57:39.478Z,18.00
2023-03-25T06:00:11.205Z,18.00
2023-03-25T06:02:45.659Z,18.00
2023-03-25T06:05:18.132Z,18.00
2023-03-25T06:07:50.234Z,18.10
2023-03-25T06:10:21.955Z,18.10
2023-03-25T06:12:56.903Z,18.10
2023-03-25T06:15:35.684Z,18.10
2023-03-25T06:18:06.436Z,18.10
2023-03-25T06:20:37.279Z,18.10
2023-03-25T06:23:09.912Z,18.10
2023-03-25T06:25:41.587Z,18.00
2023-03-25T06:28:12.744Z,18.00
2023-03-25T06:30:43.736Z,18.00
2023-03-25T06:33:16.973Z,18.00
2023-03-25T06:36:08.685Z,17.90
2023-03-25T06:38:39.646Z,18.00
2023-03-25T06:41:12.653Z,17.90
2023-03-25T06:43:44.819Z,17.90
2023-03-25T06:46:15.464Z,17.90
2023-03-25T06:48:46.022Z,17.80
2023-03-25T06:51:16.831Z,17.80
2023-03-25T06:53:47.833Z,17.80
2023-03-25T06:56:18.681Z,17.80
2023-03-25T06:58:49.337Z,17.80
2023-03-25T07:01:19.637Z,17.80
2023-03-25T07:03:50.405Z,17.90
2023-03-25T07:06:23.388Z,17.80
2023-03-25T07:08:54.515Z,17.80
2023-03-25T07:11:31.060Z,17.80
2023-03-25T07:14:01.363Z,17.80
2023-03-25T07:16:32.108Z,17.70
2023-03-25T07:19:02.549Z,17.80
2023-03-25T07:21:32.891Z,17.70
2023-03-25T07:24:03.363Z,17.60
2023-03-25T07:26:35.706Z,17.60
2023-03-25T07:29:06.725Z,17.50
2023-03-25T07:31:37.219Z,17.50
2023-03-25T07:34:09.539Z,17.40
2023-03-25T07:36:40.276Z,17.30
2023-03-25T07:39:10.786Z,17.40
2023-03-25T07:41:41.253Z,17.40
2023-03-25T07:44:12.338Z,17.40
2023-03-25T07:46:44.969Z,17.30
2023-03-25T07:49:16.000Z,17.30
2023-03-25T07:51:47.852Z,17.30
2023-03-25T07:54:18.203Z,17.30
2023-03-25T07:56:48.612Z,17.30
2023-03-25T07:59:19.151Z,17.30
2023-03-25T08:01:49.587Z,17.30
2023-03-25T08:04:20.081Z,17.20
2023-03-25T08:06:50.431Z,17.20
2023-03-25T08:09:21.257Z,17.20
2023-03-25T08:11:53.101Z,17.20
2023-03-25T08:14:23.862Z,17.20
2023-03-25T08:16:54.312Z,17.20
2023-03-25T08:19:25.245Z,17.10
2023-03-25T08:21:55.579Z,17.10
2023-03-25T08:24:28.767Z,17.10
2023-03-25T08:26:59.426Z,17.10
2023-03-25T08:29:31.704Z,17.00
2023-03-25T08:32:02.236Z,17.00
2023-03-25T08:34:36.478Z,17.00
2023-03-25T08:37:07.070Z,17.00
2023-03-25T08:39:41.417Z,17.00
2023-03-25T08:42:14.663Z,17.00
2023-03-25T08:44:45.287Z,17.00
2023-03-25T08:47:15.685Z,17.00
2023-03-25T08:49:46.335Z,17.10
2023-03-25T08:52:18.026Z,17.10
2023-03-25T08:54:48.857Z,17.10
2023-03-25T08:57:19.874Z,17.10
2023-03-25T08:59:50.477Z,17.10
2023-03-25T09:02:20.746Z,17.10
2023-03-25T09:04:56.273Z,17.00
2023-03-25T09:07:30.342Z,17.00
2023-03-25T09:10:00.900Z,17.00
2023-03-25T09:12:31.558Z,17.00
2023-03-25T09:15:01.955Z,17.00
2023-03-25T09:17:32.710Z,17.00
2023-03-25T09:20:03.850Z,17.00
2023-03-25T09:22:34.076Z,17.00
2023-03-25T09:25:04.398Z,17.00
2023-03-25T09:27:34.934Z,17.00
2023-03-25T09:30:07.375Z,17.00
2023-03-25T09:32:37.885Z,17.00
2023-03-25T09:35:09.384Z,17.00
2023-03-25T09:37:39.671Z,17.00
2023-03-25T09:40:10.907Z,17.00
2023-03-25T09:43:06.688Z,17.00
2023-03-25T09:45:52.075Z,17.00
2023-03-25T09:48:31.882Z,17.00
2023-03-25T09:51:10.603Z,17.00
2023-03-25T09:53:57.658Z,17.00
2023-03-25T09:56:32.387Z,17.00
2023-03-25T09:59:29.011Z,17.00
2023-03-25T10:03:03.500Z,17.00
2023-03-25T10:05:34.760Z,17.00
2023-03-25T10:08:35.897Z,17.00
2023-03-25T10:11:26.271Z,17.00
2023-03-25T10:14:13.226Z,17.00
2023-03-25T10:16:56.955Z,16.90
2023-03-25T10:19:56.509Z,17.00
2023-03-25T10:23:11.236Z,16.90
2023-03-25T10:25:49.784Z,17.00
2023-03-25T10:28:28.232Z,16.90
2023-03-25T10:30:58.618Z,17.00
2023-03-25T10:33:38.788Z,17.00
2023-03-25T10:36:16.949Z,16.90
2023-03-25T10:38:51.097Z,16.90
2023-03-25T10:41:41.141Z,16.80
2023-03-25T10:44:14.071Z,16.80
2023-03-25T10:47:05.598Z,16.80
2023-03-25T10:49:39.180Z,16.80
2023-03-25T10:52:09.876Z,16.70
2023-03-25T10:54:44.638Z,16.70
2023-03-25T10:57:34.516Z,16.70
2023-03-25T11:00:21.881Z,16.70
2023-03-25T11:02:53.336Z,16.70
2023-03-25T11:05:28.064Z,16.70
2023-03-25T11:08:11.941Z,16.70
2023-03-25T11:10:53.312Z,16.60
2023-03-25T11:13:28.804Z,16.60
2023-03-25T11:16:04.039Z,16.60
2023-03-25T11:18:42.432Z,16.50
2023-03-25T11:21:16.210Z,16.50
2023-03-25T11:23:50.241Z,16.50
2023-03-25T11:26:25.438Z,16.50
2023-03-25T11:29:04.716Z,16.60
2023-03-25T11:31:40.068Z,16.60
2023-03-25T11:34:24.145Z,16.60
2023-03-25T11:37:21.797Z,16.50
2023-03-25T11:39:57.197Z,16.50
2023-03-25T11:42:44.272Z,16.50
2023-03-25T11:45:24.742Z,16.50
2023-03-25T11:48:00.498Z,16.50
2023-03-25T11:50:33.805Z,16.50
2023-03-25T11:53:06.992Z,16.50
2023-03-25T11:55:57.132Z,16.40
2023-03-25T11:58:36.774Z,16.40
2023-03-25T12:01:29.197Z,16.40
2023-03-25T12:04:22.943Z,16.40
2023-03-25T12:07:03.744Z,16.30
2023-03-25T12:09:37.437Z,16.30
2023-03-25T12:12:31.733Z,16.30
2023-03-25T12:15:25.713Z,16.30
2023-03-25T12:18:26.932Z,16.40
2023-03-25T12:21:20.117Z,16.30
2023-03-25T12:24:14.108Z,16.30
2023-03-25T12:26:47.993Z,16.30
2023-03-25T12:29:40.209Z,16.30
2023-03-25T12:32:42.211Z,16.30
2023-03-25T12:35:35.951Z,16.30
2023-03-25T12:38:31.765Z,16.20
2023-03-25T12:41:30.523Z,16.20
2023-03-25T12:44:05.825Z,16.20
2023-03-25T12:47:12.108Z,16.20
2023-03-25T12:50:07.570Z,16.20
2023-03-25T12:52:47.298Z,16.20
2023-03-25T12:55:37.547Z,16.20
2023-03-25T12:58:33.395Z,16.20
2023-03-25T13:01:38.499Z,16.20
2023-03-25T13:04:21.090Z,16.20
2023-03-25T13:07:17.631Z,16.20
2023-03-25T13:10:21.565Z,16.30
2023-03-25T13:13:03.416Z,16.30
2023-03-25T13:15:49.444Z,16.30
2023-03-25T13:18:36.032Z,16.30
2023-03-25T13:21:30.198Z,16.40
2023-03-25T13:24:27.711Z,16.40
2023-03-25T13:27:00.013Z,16.40
2023-03-25T13:29:39.820Z,16.40
2023-03-25T13:32:24.407Z,16.40
2023-03-25T13:35:01.342Z,16.40
2023-03-25T13:37:37.713Z,16.40
2023-03-25T13:40:31.101Z,16.40
2023-03-25T13:43:09.425Z,16.40
2023-03-25T13:46:19.583Z,16.40
2023-03-25T13:49:06.851Z,16.40
2023-03-25T13:51:39.191Z,16.40
2023-03-25T13:54:10.140Z,16.40
2023-03-25T13:56:43.815Z,16.40
2023-03-25T13:59:35.811Z,16.40
2023-03-25T14:02:35.180Z,16.40
2023-03-25T14:05:25.063Z,16.40
2023-03-25T14:08:32.941Z,16.40
2023-03-25T14:11:21.906Z,16.40
2023-03-25T14:14:11.354Z,16.50
2023-03-25T14:16:49.928Z,16.50
2023-03-25T14:19:32.834Z,16.50
2023-03-25T14:22:14.341Z,16.50
2023-03-25T14:24:46.583Z,16.50
2023-03-25T14:27:37.582Z,16.50
2023-03-25T14:30:27.266Z,16.50
2023-03-25T14:33:06.474Z,16.50
2023-03-25T14:35:38.645Z,16.50
2023-03-25T14:38:14.429Z,16.50
2023-03-25T14:41:01.303Z,16.50
2023-03-25T14:43:42.187Z,16.50
2023-03-25T14:46:16.378Z,16.50
2023-03-25T14:49:15.640Z,16.50
2023-03-25T14:51:48.365Z,16.50
2023-03-25T14:54:38.144Z,16.50
2023-03-25T14:57:19.816Z,16.50
2023-03-25T15:00:19.101Z,16.50
2023-03-25T15:03:01.030Z,16.50
2023-03-25T15:05:34.951Z,16.50
2023-03-25T15:08:08.992Z,16.50
2023-03-25T15:10:51.390Z,16.50
2023-03-25T15:13:27.300Z,16.50
2023-03-25T15:16:26.850Z,16.50
2023-03-25T15:18:57.647Z,16.50
2023-03-25T15:21:32.960Z,16.40
2023-03-25T15:24:13.718Z,16.40
2023-03-25T15:26:47.898Z,16.40
2023-03-25T15:29:30.220Z,16.30
2023-03-25T15:32:39.929Z,16.30
2023-03-25T15:35:33.955Z,16.30
2023-03-25T15:38:19.355Z,16.20
2023-03-25T15:41:16.895Z,16.20
2023-03-25T15:44:10.557Z,16.20
2023-03-25T15:47:06.231Z,16.10
2023-03-25T15:50:00.493Z,16.20
2023-03-25T15:52:58.900Z,16.10
2023-03-25T15:55:39.941Z,16.10
2023-03-25T15:58:28.008Z,16.10
2023-03-25T16:01:14.738Z,16.10
2023-03-25T16:03:46.689Z,16.00
2023-03-25T16:06:20.104Z,16.00
2023-03-25T16:08:52.468Z,16.00
2023-03-25T16:11:24.181Z,16.00
2023-03-25T16:14:15.823Z,16.00
2023-03-25T16:16:55.260Z,16.00
2023-03-25T16:19:45.118Z,16.00
2023-03-25T16:22:32.921Z,16.00
2023-03-25T16:25:11.186Z,16.00
2023-03-25T16:27:47.023Z,16.00
2023-03-25T16:30:30.600Z,16.00
2023-03-25T16:33:13.028Z,16.10
2023-03-25T16:35:53.261Z,16.00
2023-03-25T16:38:29.188Z,16.00
2023-03-25T16:41:09.835Z,16.00
2023-03-25T16:43:40.698Z,16.00
2023-03-25T16:46:14.605Z,16.00
2023-03-25T16:48:54.936Z,16.00
2023-03-25T16:51:38.696Z,15.90
2023-03-25T16:54:20.451Z,16.00
2023-03-25T16:56:51.407Z,16.00
2023-03-25T16:59:40.402Z,16.00
2023-03-25T17:02:26.461Z,16.00
2023-03-25T17:04:58.745Z,16.00
2023-03-25T17:07:31.397Z,16.00
2023-03-25T17:10:03.318Z,16.00
2023-03-25T17:12:34.852Z,16.00
2023-03-25T17:15:10.964Z,16.00
2023-03-25T17:18:15.289Z,16.00
2023-03-25T17:20:51.440Z,16.00
2023-03-25T17:23:44.906Z,16.00
2023-03-25T17:26:19.138Z,16.00
2023-03-25T17:29:09.487Z,16.00
2023-03-25T17:31:42.829Z,16.00
2023-03-25T17:34:21.757Z,16.00
2023-03-25T17:36:59.746Z,15.90
2023-03-25T17:39:34.830Z,16.00
2023-03-25T17:42:15.731Z,16.00
2023-03-25T17:44:47.739Z,16.00
2023-03-25T17:47:20.240Z,16.00
2023-03-25T17:49:53.060Z,16.00
2023-03-25T17:52:23.385Z,16.00
2023-03-25T17:54:54.052Z,16.00
2023-03-25T17:57:24.378Z,16.00
2023-03-25T17:59:59.628Z,15.90
2023-03-25T18:02:30.569Z,15.90
2023-03-25T18:05:00.954Z,15.90
2023-03-25T18:07:31.588Z,15.90
2023-03-25T18:10:02.689Z,16.00
2023-03-25T18:12:32.968Z,16.00
2023-03-25T18:15:03.361Z,16.00
2023-03-25T18:17:34.985Z,16.00
2023-03-25T18:20:14.813Z,16.00
2023-03-25T18:22:45.896Z,16.00
2023-03-25T18:25:16.897Z,16.00
2023-03-25T18:27:55.576Z,16.00
2023-03-25T18:30:40.726Z,16.00
2023-03-25T18:33:11.420Z,16.00
2023-03-25T18:35:42.315Z,16.00
2023-03-25T18:38:42.773Z,16.00
2023-03-25T18:41:16.409Z,16.00
2023-03-25T18:43:47.273Z,15.90
2023-03-25T18:46:18.575Z,15.90
2023-03-25T18:48:49.012Z,15.90
2023-03-25T18:51:19.376Z,15.90
2023-03-25T18:53:51.072Z,15.90
2023-03-25T18:56:22.485Z,15.90
2023-03-25T18:58:53.120Z,15.90
2023-03-25T19:01:24.680Z,15.90
2023-03-25T19:03:54.982Z,16.00
2023-03-25T19:06:25.544Z,15.90
2023-03-25T19:08:55.801Z,15.90
2023-03-25T19:11:32.844Z,15.90
2023-03-25T19:14:03.140Z,15.90
2023-03-25T19:16:34.062Z,15.90
2023-03-25T19:19:04.336Z,15.90
2023-03-25T19:21:35.036Z,15.90
2023-03-25T19:24:05.409Z,15.90
2023-03-25T19:26:35.774Z,16.00
2023-03-25T19:29:06.127Z,16.00
2023-03-25T19:31:36.872Z,15.90
2023-03-25T19:34:07.756Z,15.90
2023-03-25T19:36:38.143Z,15.90
2023-03-25T19:39:08.775Z,15.90
2023-03-25T19:41:44.437Z,15.90
2023-03-25T19:44:16.131Z,15.90
2023-03-25T19:46:46.996Z,15.90
2023-03-25T19:49:25.916Z,15.90
2023-03-25T19:52:03.454Z,15.90
2023-03-25T19:54:33.681Z,15.90
2023-03-25T19:57:04.345Z,15.90
2023-03-25T19:59:34.722Z,15.90
2023-03-25T20:02:05.680Z,15.80
2023-03-25T20:04:38.313Z,15.80
2023-03-25T20:07:08.850Z,15.80
2023-03-25T20:09:40.789Z,15.80
2023-03-25T20:12:12.280Z,15.80
2023-03-25T20:14:43.227Z,15.70
2023-03-25T20:17:13.710Z,15.70
2023-03-25T20:19:44.089Z,15.60
2023-03-25T20:22:24.208Z,15.60
2023-03-25T20:24:57.190Z,15.50
2023-03-25T20:27:27.838Z,15.50
2023-03-25T20:29:59.193Z,15.40
2023-03-25T20:32:39.913Z,15.40
2023-03-25T20:35:14.675Z,15.40
2023-03-25T20:37:46.657Z,15.40
2023-03-25T20:40:20.826Z,15.40
2023-03-25T20:42:56.189Z,15.40
2023-03-25T20:45:31.002Z,15.40
2023-03-25T20:48:02.173Z,15.40
2023-03-25T20:50:32.575Z,15.40
2023-03-25T20:53:03.102Z,15.40
2023-03-25T20:55:33.933Z,15.40
2023-03-25T20:58:04.320Z,15.50
2023-03-25T21:00:35.866Z,15.60
2023-03-25T21:03:06.808Z,15.70
2023-03-25T21:05:37.664Z,15.70
2023-03-25T21:08:09.262Z,15.80
2023-03-25T21:10:40.274Z,15.80
2023-03-25T21:13:10.853Z,15.90
2023-03-25T21:15:42.728Z,16.00
2023-03-25T21:18:16.453Z,16.00
2023-03-25T21:20:54.972Z,16.10
2023-03-25T21:23:29.894Z,16.20
2023-03-25T21:26:02.482Z,16.20
2023-03-25T21:28:33.891Z,16.30
2023-03-25T21:31:21.254Z,16.30
2023-03-25T21:33:54.239Z,16.30
2023-03-25T21:36:29.749Z,16.30
2023-03-25T21:39:02.176Z,16.30
2023-03-25T21:41:32.901Z,16.30
2023-03-25T21:44:03.619Z,16.30
2023-03-25T21:46:38.390Z,16.30
2023-03-25T21:49:38.233Z,16.30
2023-03-25T21:52:14.864Z,16.40
2023-03-25T21:54:45.537Z,16.40
2023-03-25T21:57:16.332Z,16.50
2023-03-25T21:59:46.685Z,16.50
2023-03-25T22:02:19.218Z,16.60
2023-03-25T22:04:49.997Z,16.60
2023-03-25T22:07:20.365Z,16.60
2023-03-25T22:09:51.191Z,16.70
2023-03-25T22:12:21.536Z,16.80
2023-03-25T22:14:52.054Z,16.80
2023-03-25T22:17:22.420Z,16.90
2023-03-25T22:19:53.003Z,16.90
2023-03-25T22:22:57.917Z,17.00
2023-03-25T22:25:29.870Z,17.00
2023-03-25T22:28:01.128Z,17.10
2023-03-25T22:30:31.898Z,17.10
2023-03-25T22:33:02.470Z,17.10
2023-03-25T22:35:33.569Z,17.10
2023-03-25T22:38:04.315Z,17.20
2023-03-25T22:40:36.324Z,17.30
2023-03-25T22:43:06.629Z,17.30
2023-03-25T22:45:37.243Z,17.40
2023-03-25T22:48:07.842Z,17.50
2023-03-25T22:50:38.208Z,17.60
2023-03-25T22:53:08.479Z,17.60
2023-03-25T22:55:39.658Z,17.70
2023-03-25T22:58:10.048Z,17.70
2023-03-25T23:00:40.317Z,17.70
2023-03-25T23:03:12.805Z,17.80
2023-03-25T23:05:57.405Z,17.80
2023-03-25T23:08:33.189Z,17.80
2023-03-25T23:11:09.441Z,17.80
2023-03-25T23:13:40.191Z,17.90
2023-03-25T23:16:14.714Z,17.90
2023-03-25T23:18:45.886Z,17.90
2023-03-25T23:21:27.599Z,18.00
2023-03-25T23:24:00.234Z,18.10
2023-03-25T23:26:38.311Z,18.20
2023-03-25T23:29:11.622Z,18.30
2023-03-25T23:31:44.508Z,18.40
2023-03-25T23:34:19.538Z,18.50
2023-03-25T23:36:50.804Z,18.60
2023-03-25T23:39:24.303Z,18.70
2023-03-25T23:41:54.790Z,18.70
2023-03-25T23:44:25.136Z,18.80
2023-03-25T23:46:55.904Z,18.80
2023-03-25T23:49:26.326Z,18.90
2023-03-25T23:51:56.864Z,18.90
2023-03-25T23:54:27.447Z,19.00
2023-03-25T23:56:57.974Z,19.10
2023-03-25T23:59:28.863Z,19.20
